메인 페이지
METAR-TAF:

METAR-TAF

공항 :

Guymon, 오클라호마, 미국

위도: 36-40-54N, 경도: 101-30-19W, 고도: 952m

현재 날씨관측

예보는 41분 전, 10:53시(UTC)에 발표되었습니다.
남남서7kt
온도 13°C
습도 58%
기압 1009 hPa
시정: 16.1km
맑음

METAR: KGUY 261053Z AUTO 21007KT 10SM CLR 13/05 A2980 RMK AO2 SLP044 T01330050

시각: 06:34 (11:34 UTC)

예보

예보는 6 시간 2분 전, 05:32시(UTC)에 발표되었습니다.
예보 대상 시간: 26일 06시부터 27일 06시까지 (UTC)
10kt
시정: 10km
맑음
26일 1300시부터 (UTC)
서남서8kt
시정: 10km
맑음
26일 1500시부터 (UTC)
여러 방향의 바람 5kt
시정: 10km
맑음
27일 0000시부터 (UTC)
남동8kt
시정: 10km
맑음

TAF: KGUY 260532Z 2606/2706 19010KT P6SM SKC WS020/22040KT FM261300 24008KT P6SM SKC FM261500 VRB05KT P6SM SKC FM270000 14008KT P6SM SKC

4,000개 이상의 공항 관측 자료 및 예보 (METAR 및 TAF 보고).

지도상에서 검색 가능한 기상관측소가 노란 점과 빨간 점으로 표시되어 있습니다.

기상관측소 명을 보려면 표시 위로 마우스를 이동하세요.

날씨 관측과 예보를 보려면 클릭하세요.

지도 변경 : 확대하려면 엑스 표시가 있는 녹색 버튼, 축소하려면 빼기 표시가 있는 녹색 버튼, 다음 페이지의 지도를 보려면 녹색 화살표를 클릭하세요.


METAR-TAF: